CheckWX is a tool to help pilots better visualize weather data.  It is not intended as a substitute for an official pre-flight weather briefing.

14:46:34 UTC

RJFF TAF
Fukuoka Airport
Fukuoka, Japan
TAF RJFF 231106Z 2312/2418 28015KT 9000 -SHRA FEW020 SCT030 BKN040 TEMPO 2312/2314 28015G25KT BECMG 2409/2412 17005KT

Mar-23@
12:00 UTC

Mar-23 @ 12:00 UTC

Mar-24@
09:00 UTC

Mar-24 @ 09:00 UTC

TAF RJFF 231106Z 2312/2418 28015KT 9000 -SHRA FEW020 SCT030 BKN040
Wind
  • 280° at 15 KTS
Conditions
Light Rain
Cloud Levels
  • Few at 2,000' AGL
  • Scattered at 3,000' AGL
  • Broken at 4,000' AGL

Mar-23@
12:00 UTC

Mar-23 @ 12:00 UTC

Mar-23@
14:00 UTC

Mar-23 @ 14:00 UTC

TEMPO 2312/2314 28015G25KT

Expired

Wind
  • 280° at 15 KTS
  • {Gusting to 25 KTS

Mar-24@
09:00 UTC

Mar-24 @ 09:00 UTC

Mar-24@
18:00 UTC

Mar-24 @ 18:00 UTC

BECMG 2409/2412 17005KT

Becoming

Becoming Conditions expected by Sun, Mar 24, 2019 @ 12:00 UTC

Wind
  • 170° at 5 KTS
Conditions
Light Rain
Cloud Levels
  • Few at 2,000' AGL
  • Scattered at 3,000' AGL
  • Broken at 4,000' AGL